Terminal Aerodrome Forecast
Issued by NWS

Home | Current Version | Previous Version | Text Only | Print | Product List | Glossary On
Versions: 1 2 3 4 5 6 7 8 9 10 11 12
000
FTUS41 KBTV 271123
TAFMPV
TAF
KMPV 271123Z 2712/2812 00000KT 3SM BR SCT001
      TEMPO 2712/2714 1/4SM FG VV001
     FM271400 24004KT P6SM SKC
     FM280800 VRB03KT 3SM BR SCT005=

USA.gov is the U.S. government's official web portal to all federal, state and local government web resources and services.